Time;durP1;ratioP1;P1;durP2;ratioP2;P2;SDS_P1;SDS_P2;PMS_P1;PMS_P2;Temp;Humidity;BMP_temperature;BMP_pressure;BME280_temperature;BME280_humidity;BME280_pressure;Samples;Min_cycle;Max_cycle;Signal;HPM_P1;HPM_P2
2022/11/23 00:00:29;;;;;;;20.75;19.50;;;2.40;99.90;;;;;;5046967;28;20437;-82
2022/11/23 00:02:58;;;;;;;26.38;25.30;;;2.40;99.90;;;;;;5066645;28;20490;-83
2022/11/23 00:05:26;;;;;;;18.13;17.13;;;2.40;99.90;;;;;;5066763;28;20975;-82
2022/11/23 00:07:52;;;;;;;15.00;14.15;;;2.40;99.90;;;;;;5064004;28;20029;-82
2022/11/23 00:10:18;;;;;;;17.52;16.65;;;2.40;99.90;;;;;;5064236;28;20133;-80
2022/11/23 00:12:44;;;;;;;18.35;17.27;;;2.50;99.90;;;;;;5050244;28;20533;-80
2022/11/23 00:15:12;;;;;;;37.25;35.80;;;2.50;99.90;;;;;;5050375;28;20032;-82
2022/11/23 00:17:37;;;;;;;23.80;22.30;;;2.60;99.90;;;;;;5063771;28;20017;-82
2022/11/23 00:20:06;;;;;;;22.73;21.10;;;2.60;99.90;;;;;;5065106;28;20032;-81
2022/11/23 00:22:31;;;;;;;24.88;23.52;;;2.60;99.90;;;;;;5068267;28;20383;-84
2022/11/23 00:24:58;;;;;;;26.65;25.50;;;2.50;99.90;;;;;;5045976;28;20074;-83
2022/11/23 00:27:23;;;;;;;31.77;30.45;;;2.50;99.90;;;;;;5064601;28;20021;-80
2022/11/23 00:29:50;;;;;;;14.13;13.43;;;2.40;99.90;;;;;;5046021;28;20378;-82
2022/11/23 00:32:16;;;;;;;15.70;14.82;;;2.50;99.90;;;;;;5065228;28;20041;-81
2022/11/23 00:34:41;;;;;;;19.50;18.48;;;2.40;99.90;;;;;;5059888;28;20036;-82
2022/11/23 00:37:07;;;;;;;24.38;23.25;;;2.50;99.90;;;;;;5066844;28;20367;-79
2022/11/23 00:39:32;;;;;;;18.95;18.15;;;2.40;99.90;;;;;;5066778;28;20073;-82
2022/11/23 00:41:58;;;;;;;20.92;19.95;;;2.40;99.90;;;;;;5066559;28;20494;-84
2022/11/23 00:44:24;;;;;;;29.15;27.75;;;2.60;99.90;;;;;;5068443;28;20025;-81
2022/11/23 00:46:51;;;;;;;26.73;25.40;;;2.50;99.90;;;;;;5050027;28;20025;-82
2022/11/23 00:49:17;;;;;;;15.05;14.20;;;2.60;99.90;;;;;;5046670;28;20040;-79
2022/11/23 00:51:42;;;;;;;14.25;13.40;;;2.60;99.90;;;;;;5049830;28;20056;-82
2022/11/23 00:54:08;;;;;;;16.42;15.73;;;2.60;99.90;;;;;;5049910;28;20774;-86
2022/11/23 00:56:35;;;;;;;22.38;21.35;;;2.70;99.90;;;;;;5068068;28;20052;-79
2022/11/23 00:59:01;;;;;;;15.05;14.18;;;2.70;99.90;;;;;;5067865;28;20027;-82
2022/11/23 01:01:34;;;;;;;19.63;18.70;;;2.70;99.90;;;;;;5033416;28;20071;-82
2022/11/23 01:04:01;;;;;;;12.07;11.40;;;2.80;99.90;;;;;;5045190;28;20029;-78
2022/11/23 01:06:30;;;;;;;24.00;22.83;;;2.80;99.90;;;;;;5068497;28;20021;-81
2022/11/23 01:08:58;;;;;;;11.30;10.80;;;2.90;99.90;;;;;;5071096;28;20025;-81
2022/11/23 01:11:26;;;;;;;41.38;39.58;;;2.90;99.90;;;;;;5071490;28;20044;-80
2022/11/23 01:13:52;;;;;;;17.10;14.13;;;3.00;99.90;;;;;;5067310;28;20036;-80
2022/11/23 01:16:21;;;;;;;25.42;23.90;;;3.00;99.90;;;;;;5053358;28;20040;-80
2022/11/23 01:18:58;;;;;;;22.92;21.90;;;3.10;99.90;;;;;;5051818;28;20106;-82
2022/11/23 01:21:25;;;;;;;15.73;15.00;;;3.10;99.90;;;;;;5070853;28;20739;-83
2022/11/23 01:23:51;;;;;;;20.20;18.90;;;3.10;99.90;;;;;;5069759;28;20044;-82
2022/11/23 01:26:17;;;;;;;15.77;14.88;;;3.20;99.90;;;;;;5049948;28;20681;-80
2022/11/23 01:28:44;;;;;;;36.88;35.40;;;3.20;99.90;;;;;;5070992;28;20111;-81
2022/11/23 01:31:16;;;;;;;17.63;16.60;;;3.20;99.90;;;;;;5053179;28;20215;-80
2022/11/23 01:33:41;;;;;;;15.45;14.52;;;3.20;99.90;;;;;;5052848;28;20108;-85
2022/11/23 01:36:12;;;;;;;14.80;13.70;;;3.20;99.90;;;;;;5049755;28;20123;-81
2022/11/23 01:38:39;;;;;;;17.38;16.42;;;3.30;99.90;;;;;;5069358;28;20021;-82
2022/11/23 01:41:06;;;;;;;14.27;13.50;;;3.30;99.90;;;;;;5052782;28;20032;-81
2022/11/23 01:43:33;;;;;;;12.85;12.23;;;3.40;99.90;;;;;;5052897;28;20054;-81
2022/11/23 01:46:00;;;;;;;14.13;12.82;;;3.40;99.90;;;;;;5070956;28;20025;-82
2022/11/23 01:48:49;;;;;;;13.18;12.50;;;3.40;99.90;;;;;;5070483;28;20028;-78
2022/11/23 01:51:19;;;;;;;13.15;12.43;;;3.40;99.90;;;;;;5064762;28;20088;-83
2022/11/23 01:53:47;;;;;;;13.27;12.65;;;3.50;99.90;;;;;;5040378;28;20124;-83
2022/11/23 01:56:22;;;;;;;20.92;19.95;;;3.50;99.90;;;;;;5037758;28;20308;-80
2022/11/23 01:58:51;;;;;;;25.38;24.17;;;3.40;99.90;;;;;;5056849;28;20115;-81
2022/11/23 02:01:19;;;;;;;15.98;14.95;;;3.40;99.90;;;;;;5042260;28;20025;-81
2022/11/23 02:03:47;;;;;;;44.25;42.33;;;3.50;99.90;;;;;;5057109;28;20033;-82
2022/11/23 02:06:20;;;;;;;13.07;12.32;;;3.50;99.90;;;;;;5034644;28;20456;-81
2022/11/23 02:08:47;;;;;;;14.48;13.48;;;3.60;99.90;;;;;;5044847;28;20442;-80
2022/11/23 02:11:15;;;;;;;15.30;14.52;;;3.60;99.90;;;;;;5056454;28;20121;-80
2022/11/23 02:13:43;;;;;;;14.25;13.52;;;3.70;99.90;;;;;;5027779;28;20065;-79
2022/11/23 02:16:09;;;;;;;16.05;15.13;;;3.70;99.90;;;;;;5064003;28;20509;-83
2022/11/23 02:18:37;;;;;;;16.05;15.25;;;3.60;99.90;;;;;;5052959;28;20042;-83
2022/11/23 02:21:03;;;;;;;15.52;14.75;;;3.70;99.90;;;;;;5054258;28;20132;-82
2022/11/23 02:23:48;;;;;;;14.73;13.93;;;3.70;99.90;;;;;;5060467;28;20104;-81
2022/11/23 02:26:28;;;;;;;13.68;12.98;;;3.70;99.90;;;;;;5053020;28;20057;-80
2022/11/23 02:29:00;;;;;;;11.98;11.27;;;3.80;99.90;;;;;;5057116;28;20021;-81
2022/11/23 02:31:26;;;;;;;13.38;12.68;;;3.90;99.90;;;;;;5062600;28;20087;-84
2022/11/23 02:33:51;;;;;;;13.13;12.52;;;3.80;99.90;;;;;;5058913;28;20439;-81
2022/11/23 02:36:35;;;;;;;13.93;12.93;;;3.80;99.90;;;;;;5057136;28;20032;-82
2022/11/23 02:39:16;;;;;;;15.80;15.07;;;3.80;99.90;;;;;;5032414;28;20025;-83
2022/11/23 02:41:50;;;;;;;11.50;11.00;;;3.80;99.90;;;;;;5052935;28;20024;-80
2022/11/23 02:44:37;;;;;;;14.20;13.50;;;3.80;99.90;;;;;;5060381;28;20039;-81
2022/11/23 02:47:05;;;;;;;14.55;13.82;;;3.80;99.90;;;;;;5050277;28;20035;-80
2022/11/23 02:49:31;;;;;;;15.70;14.93;;;3.70;99.90;;;;;;5048613;28;20040;-80
2022/11/23 02:51:57;;;;;;;16.40;15.00;;;3.80;99.90;;;;;;5058981;28;20048;-79
2022/11/23 02:54:24;;;;;;;14.23;13.63;;;3.80;99.90;;;;;;5040083;28;20530;-81
2022/11/23 02:56:50;;;;;;;13.82;11.40;;;3.80;99.90;;;;;;5016339;28;20037;-78
2022/11/23 02:59:15;;;;;;;14.77;14.07;;;3.80;99.90;;;;;;5061879;28;20043;-80
2022/11/23 03:01:41;;;;;;;11.95;11.35;;;3.80;99.90;;;;;;5061631;28;20395;-82
2022/11/23 03:04:07;;;;;;;14.18;13.48;;;3.80;99.90;;;;;;5039014;28;20577;-82
2022/11/23 03:06:32;;;;;;;15.68;14.70;;;3.80;99.90;;;;;;5042822;28;20032;-79
2022/11/23 03:08:58;;;;;;;15.10;14.40;;;3.80;99.90;;;;;;5057365;28;20497;-80
2022/11/23 03:11:24;;;;;;;17.02;16.17;;;3.60;99.90;;;;;;5055543;28;20511;-78
2022/11/23 03:13:50;;;;;;;15.02;14.15;;;3.60;99.90;;;;;;5037569;28;20055;-81
2022/11/23 03:16:15;;;;;;;15.98;14.88;;;3.60;99.90;;;;;;5044135;28;20055;-82
2022/11/23 03:18:41;;;;;;;14.65;13.90;;;3.60;99.90;;;;;;5019783;28;20581;-80
2022/11/23 03:21:07;;;;;;;16.90;15.90;;;3.60;99.90;;;;;;5038832;28;20036;-81
2022/11/23 03:23:36;;;;;;;17.08;15.98;;;3.60;99.90;;;;;;5041396;28;20115;-79
2022/11/23 03:26:03;;;;;;;17.63;16.60;;;3.50;99.90;;;;;;5048707;28;20052;-82
2022/11/23 03:28:29;;;;;;;17.02;16.25;;;3.50;99.90;;;;;;5039264;28;20035;-82
2022/11/23 03:30:56;;;;;;;16.35;15.60;;;3.50;99.90;;;;;;5037657;28;20037;-80
2022/11/23 03:33:21;;;;;;;17.23;16.48;;;3.50;99.90;;;;;;5056758;28;20032;-82
2022/11/23 03:35:47;;;;;;;20.90;19.98;;;3.50;99.90;;;;;;5040916;28;20036;-81
2022/11/23 03:38:13;;;;;;;18.63;17.73;;;3.40;99.90;;;;;;5059135;28;20044;-80
2022/11/23 03:40:39;;;;;;;19.30;17.00;;;3.50;99.90;;;;;;5036564;28;20660;-77
2022/11/23 03:43:05;;;;;;;17.95;16.95;;;3.50;99.90;;;;;;5030100;28;20070;-79
2022/11/23 03:45:31;;;;;;;17.40;16.40;;;3.50;99.90;;;;;;5064755;28;20032;-80
2022/11/23 03:47:56;;;;;;;17.27;16.15;;;3.50;99.90;;;;;;5033173;28;20491;-79
2022/11/23 03:50:24;;;;;;;17.40;16.63;;;3.60;99.90;;;;;;5051781;28;20041;-79
2022/11/23 03:52:49;;;;;;;18.95;17.77;;;3.60;99.90;;;;;;5044061;28;20554;-82
2022/11/23 03:55:15;;;;;;;18.52;17.70;;;3.60;99.90;;;;;;5058166;28;20037;-79
2022/11/23 03:57:41;;;;;;;18.52;17.63;;;3.60;99.90;;;;;;5027937;28;20525;-79
2022/11/23 04:00:08;;;;;;;18.52;17.55;;;3.50;99.90;;;;;;5018322;28;20116;-80
2022/11/23 04:02:34;;;;;;;18.95;18.20;;;3.60;99.90;;;;;;5056294;28;20033;-78
2022/11/23 04:05:00;;;;;;;16.27;15.52;;;3.60;99.90;;;;;;5055687;28;20502;-78
2022/11/23 04:07:26;;;;;;;17.40;16.55;;;3.50;99.90;;;;;;5064505;28;20029;-79
2022/11/23 04:09:51;;;;;;;23.88;22.83;;;3.50;99.90;;;;;;5056092;28;20685;-83
2022/11/23 04:12:17;;;;;;;16.38;15.60;;;3.50;99.90;;;;;;5048474;28;20046;-83
2022/11/23 04:14:43;;;;;;;15.50;14.40;;;3.50;99.90;;;;;;5062808;28;20044;-82
2022/11/23 04:17:08;;;;;;;16.00;14.95;;;3.60;99.90;;;;;;5021672;28;20087;-79
2022/11/23 04:19:34;;;;;;;19.98;18.77;;;3.60;99.90;;;;;;5048105;28;20040;-81
2022/11/23 04:21:59;;;;;;;16.73;15.60;;;3.50;99.90;;;;;;5061601;28;20032;-78
2022/11/23 04:24:25;;;;;;;17.45;16.70;;;3.50;99.90;;;;;;5041420;28;20033;-80
2022/11/23 04:26:51;;;;;;;17.48;16.27;;;3.50;99.90;;;;;;5045787;28;20021;-79
2022/11/23 04:29:16;;;;;;;15.38;14.25;;;3.60;99.90;;;;;;5028846;28;20559;-77
2022/11/23 04:31:42;;;;;;;15.27;14.45;;;3.60;99.90;;;;;;5043271;28;20060;-80
2022/11/23 04:34:08;;;;;;;17.10;16.27;;;3.60;99.90;;;;;;5046683;28;20434;-82
2022/11/23 04:36:34;;;;;;;18.23;17.13;;;3.60;99.90;;;;;;5054932;28;20459;-79
2022/11/23 04:38:59;;;;;;;17.25;16.20;;;3.60;99.90;;;;;;5025770;28;20033;-80
2022/11/23 04:41:25;;;;;;;17.88;16.75;;;3.50;99.90;;;;;;5037248;28;20037;-82
2022/11/23 04:43:51;;;;;;;15.13;14.23;;;3.60;99.90;;;;;;5041876;28;20074;-79
2022/11/23 04:46:17;;;;;;;14.80;14.18;;;3.60;99.90;;;;;;5040997;28;20028;-81
2022/11/23 04:48:43;;;;;;;16.27;15.52;;;3.60;99.90;;;;;;5058033;28;20029;-81
2022/11/23 04:51:08;;;;;;;15.55;14.63;;;3.60;99.90;;;;;;5044521;28;20048;-78
2022/11/23 04:53:34;;;;;;;15.45;14.68;;;3.60;99.90;;;;;;5037124;28;20048;-79
2022/11/23 04:56:00;;;;;;;16.33;15.23;;;3.70;99.90;;;;;;5055412;28;20051;-79
2022/11/23 04:58:27;;;;;;;14.80;13.90;;;3.70;99.90;;;;;;5040473;28;20052;-81
2022/11/23 05:00:53;;;;;;;15.63;14.85;;;3.70;99.90;;;;;;5046276;28;20099;-84
2022/11/23 05:03:19;;;;;;;15.65;14.90;;;3.60;99.90;;;;;;5059238;28;20032;-79
2022/11/23 05:05:46;;;;;;;23.10;21.85;;;3.60;99.90;;;;;;5041894;28;20618;-81
2022/11/23 05:08:11;;;;;;;17.58;16.45;;;3.60;99.90;;;;;;5052216;28;20064;-84
2022/11/23 05:10:37;;;;;;;16.45;15.57;;;3.60;99.90;;;;;;5040419;28;20056;-81
2022/11/23 05:13:03;;;;;;;13.73;12.82;;;3.60;99.90;;;;;;5039144;28;20033;-82
2022/11/23 05:15:29;;;;;;;14.23;13.35;;;3.50;99.90;;;;;;5057125;28;20104;-84
2022/11/23 05:18:05;;;;;;;16.83;15.93;;;3.50;99.90;;;;;;5037681;28;20354;-85
2022/11/23 05:20:31;;;;;;;15.80;14.73;;;3.50;99.90;;;;;;5046750;28;20510;-82
2022/11/23 05:22:57;;;;;;;15.88;15.05;;;3.50;99.90;;;;;;5025651;28;20021;-82
2022/11/23 05:25:23;;;;;;;14.65;13.95;;;3.50;99.90;;;;;;5057152;28;20037;-84
2022/11/23 05:27:50;;;;;;;15.48;14.68;;;3.50;99.90;;;;;;5020278;28;20028;-86
2022/11/23 05:30:17;;;;;;;23.15;21.90;;;3.50;99.90;;;;;;5056818;28;20067;-83
2022/11/23 05:32:43;;;;;;;13.13;12.38;;;3.50;99.90;;;;;;5037255;28;20567;-86
2022/11/23 05:35:09;;;;;;;16.42;15.68;;;3.60;99.90;;;;;;5059627;28;20032;-80
2022/11/23 05:37:36;;;;;;;16.98;16.15;;;3.60;99.90;;;;;;5058541;28;20120;-82
2022/11/23 05:40:02;;;;;;;14.18;13.23;;;3.60;99.90;;;;;;5053806;28;20020;-79
2022/11/23 05:42:28;;;;;;;24.33;23.15;;;3.60;99.90;;;;;;5038118;28;20128;-78
2022/11/23 05:44:53;;;;;;;17.33;16.13;;;3.50;99.90;;;;;;5063094;28;20631;-79
2022/11/23 05:47:19;;;;;;;14.90;14.02;;;3.60;99.90;;;;;;5035544;28;20029;-79
2022/11/23 05:49:45;;;;;;;12.93;12.07;;;3.60;99.90;;;;;;5030272;28;20037;-80
2022/11/23 05:52:10;;;;;;;15.07;14.38;;;3.50;99.90;;;;;;5021357;28;20551;-80
2022/11/23 05:54:36;;;;;;;11.57;10.90;;;3.50;99.90;;;;;;5019320;28;20034;-79
2022/11/23 05:57:01;;;;;;;16.25;15.13;;;3.50;99.90;;;;;;5020435;28;20114;-80
2022/11/23 05:59:27;;;;;;;14.93;14.20;;;3.50;99.90;;;;;;5041024;28;20028;-79
2022/11/23 06:01:53;;;;;;;15.52;14.43;;;3.40;99.90;;;;;;5022246;28;20021;-82
2022/11/23 06:04:18;;;;;;;17.83;16.88;;;3.40;99.90;;;;;;5041391;28;20043;-78
2022/11/23 06:06:44;;;;;;;16.77;15.77;;;3.30;99.90;;;;;;5026195;28;20128;-82
2022/11/23 06:09:10;;;;;;;19.30;17.83;;;3.40;99.90;;;;;;5047981;28;20519;-79
2022/11/23 06:11:35;;;;;;;17.45;16.65;;;3.30;99.90;;;;;;5042491;28;20483;-79
2022/11/23 06:14:01;;;;;;;22.27;21.15;;;3.30;99.90;;;;;;5020951;28;20032;-78
2022/11/23 06:16:27;;;;;;;21.40;20.38;;;3.20;99.90;;;;;;5046786;28;20044;-79
2022/11/23 06:18:52;;;;;;;18.27;17.40;;;3.10;99.90;;;;;;5038556;28;20038;-79
2022/11/23 06:21:18;;;;;;;21.80;20.80;;;3.20;99.90;;;;;;5032097;28;20423;-81
2022/11/23 06:23:45;;;;;;;18.42;17.30;;;3.20;99.90;;;;;;5051049;28;20022;-75
2022/11/23 06:26:11;;;;;;;18.70;17.75;;;3.20;99.90;;;;;;5024721;28;20474;-77
2022/11/23 06:28:37;;;;;;;18.13;17.17;;;3.30;99.90;;;;;;5040463;28;20115;-79
2022/11/23 06:31:05;;;;;;;16.98;16.08;;;3.20;99.90;;;;;;5019930;28;20259;-79
2022/11/23 06:33:31;;;;;;;17.70;16.67;;;3.30;99.90;;;;;;5033913;28;20032;-79
2022/11/23 06:36:02;;;;;;;15.20;14.45;;;3.20;99.90;;;;;;5038878;28;20049;-78
2022/11/23 06:38:28;;;;;;;17.23;16.13;;;3.20;99.90;;;;;;5036791;28;20055;-78
2022/11/23 06:40:59;;;;;;;16.27;15.35;;;3.20;99.90;;;;;;5044250;28;20119;-79
2022/11/23 06:43:25;;;;;;;16.75;15.88;;;3.20;99.90;;;;;;5030675;28;20036;-77
2022/11/23 06:45:51;;;;;;;17.25;16.30;;;3.20;99.90;;;;;;5026513;28;20034;-77
2022/11/23 06:48:16;;;;;;;17.80;17.02;;;3.10;99.90;;;;;;5026208;28;20483;-76
2022/11/23 06:50:42;;;;;;;16.85;16.05;;;3.10;99.90;;;;;;5029663;28;20729;-78
2022/11/23 06:53:11;;;;;;;16.05;15.20;;;3.10;99.90;;;;;;5031852;28;20037;-76
2022/11/23 06:55:37;;;;;;;16.77;15.88;;;3.10;99.90;;;;;;5051051;28;20025;-78
2022/11/23 06:58:02;;;;;;;17.33;16.42;;;3.00;99.90;;;;;;5022655;28;20051;-76
2022/11/23 07:00:28;;;;;;;17.58;16.73;;;3.00;99.90;;;;;;5059501;28;20036;-77
2022/11/23 07:02:55;;;;;;;17.40;16.58;;;2.90;99.90;;;;;;5041157;28;20087;-78
2022/11/23 07:05:21;;;;;;;18.92;18.05;;;2.70;99.90;;;;;;5044395;28;20106;-80
2022/11/23 07:07:47;;;;;;;21.67;20.60;;;2.70;99.90;;;;;;5055259;28;20032;-77
2022/11/23 07:10:13;;;;;;;25.60;24.15;;;2.70;99.90;;;;;;5037985;28;20029;-78
2022/11/23 07:12:39;;;;;;;22.40;21.27;;;2.80;99.90;;;;;;5041932;28;20067;-78
2022/11/23 07:15:06;;;;;;;20.70;19.73;;;2.80;99.90;;;;;;5042480;28;20028;-78
2022/11/23 07:17:32;;;;;;;18.10;16.98;;;2.80;99.90;;;;;;5039593;28;20043;-76
2022/11/23 07:19:57;;;;;;;18.27;17.08;;;2.70;99.90;;;;;;5027048;28;20041;-76
2022/11/23 07:22:23;;;;;;;17.80;16.48;;;2.60;99.90;;;;;;5047120;28;20087;-80
2022/11/23 07:24:49;;;;;;;22.27;18.65;;;2.50;99.90;;;;;;5033944;28;20061;-79
2022/11/23 07:27:16;;;;;;;30.95;29.23;;;2.60;99.90;;;;;;5049072;28;20566;-77
2022/11/23 07:29:42;;;;;;;31.75;30.38;;;2.60;99.90;;;;;;5061388;28;20027;-76
2022/11/23 07:32:07;;;;;;;29.90;27.73;;;2.50;99.90;;;;;;5025827;28;20128;-78
2022/11/23 07:34:33;;;;;;;20.48;19.33;;;2.50;99.90;;;;;;5016687;28;20510;-78
2022/11/23 07:36:59;;;;;;;21.65;20.27;;;2.40;99.90;;;;;;5040978;28;20029;-78
2022/11/23 07:39:24;;;;;;;28.77;27.23;;;2.40;99.90;;;;;;5019755;28;20037;-81
2022/11/23 07:41:50;;;;;;;27.30;25.90;;;2.30;99.90;;;;;;5018196;28;20035;-77
2022/11/23 07:44:16;;;;;;;20.10;19.13;;;2.40;99.90;;;;;;5057678;28;20107;-78
2022/11/23 07:46:41;;;;;;;18.42;17.15;;;2.40;99.90;;;;;;5045312;28;20032;-81
2022/11/23 07:49:07;;;;;;;24.77;23.45;;;2.30;99.90;;;;;;5045513;28;20025;-77
2022/11/23 07:51:33;;;;;;;16.63;15.77;;;2.30;99.90;;;;;;5049183;28;20060;-78
2022/11/23 07:53:58;;;;;;;34.13;32.58;;;2.30;99.90;;;;;;5049241;28;20536;-78
2022/11/23 07:56:24;;;;;;;29.25;27.83;;;2.40;99.90;;;;;;5031274;28;20033;-78
2022/11/23 07:58:50;;;;;;;23.25;21.67;;;2.50;99.90;;;;;;5068312;28;20032;-77
2022/11/23 08:01:17;;;;;;;24.83;23.50;;;2.50;99.90;;;;;;5029530;28;20078;-76
2022/11/23 08:03:44;;;;;;;32.97;30.80;;;2.60;99.90;;;;;;5051090;28;20025;-77
2022/11/23 08:06:10;;;;;;;38.60;36.83;;;2.70;99.90;;;;;;5047291;28;20081;-77
2022/11/23 08:08:37;;;;;;;41.53;38.78;;;2.80;99.90;;;;;;5065860;28;20100;-76
2022/11/23 08:11:04;;;;;;;34.55;32.90;;;2.80;99.90;;;;;;5066979;28;20028;-78
2022/11/23 08:13:31;;;;;;;40.25;38.65;;;2.90;99.90;;;;;;5040831;28;20036;-79
2022/11/23 08:15:56;;;;;;;43.47;41.55;;;3.00;99.90;;;;;;5030749;28;21147;-77
2022/11/23 08:18:26;;;;;;;43.03;41.33;;;3.00;99.90;;;;;;5064852;28;20112;-79
2022/11/23 08:20:52;;;;;;;28.67;26.90;;;3.10;99.90;;;;;;5058799;28;20532;-79
2022/11/23 08:23:18;;;;;;;21.38;19.52;;;3.20;99.90;;;;;;5040119;28;20498;-77
2022/11/23 08:25:45;;;;;;;37.00;35.03;;;3.30;99.90;;;;;;5061866;28;20056;-77
2022/11/23 08:28:11;;;;;;;34.78;33.22;;;3.50;99.90;;;;;;5064970;28;20578;-78
2022/11/23 08:30:38;;;;;;;40.75;39.17;;;3.60;99.90;;;;;;5064488;28;20056;-81
2022/11/23 08:33:05;;;;;;;21.80;20.77;;;3.70;99.90;;;;;;5064890;28;20529;-78
2022/11/23 08:35:35;;;;;;;17.10;16.13;;;3.80;99.90;;;;;;5050561;28;20037;-78
2022/11/23 08:38:01;;;;;;;17.55;16.45;;;3.80;99.90;;;;;;5049720;28;20028;-78
2022/11/23 08:40:27;;;;;;;27.55;26.15;;;3.90;99.90;;;;;;5034173;28;20486;-79
2022/11/23 08:42:53;;;;;;;37.10;35.38;;;4.00;99.90;;;;;;5050844;28;20033;-77
2022/11/23 08:45:19;;;;;;;31.55;30.13;;;4.10;99.90;;;;;;5051439;28;20078;-76
2022/11/23 08:47:45;;;;;;;33.80;31.95;;;4.20;99.90;;;;;;5068893;28;20032;-79
2022/11/23 08:50:11;;;;;;;37.72;36.13;;;4.30;99.90;;;;;;5047598;28;20032;-79
2022/11/23 08:52:36;;;;;;;18.98;17.92;;;4.40;99.90;;;;;;5050890;28;20048;-80
2022/11/23 08:55:03;;;;;;;17.10;15.80;;;4.40;99.90;;;;;;5066553;28;20056;-78
2022/11/23 08:57:28;;;;;;;21.65;20.73;;;4.50;99.90;;;;;;5050957;28;20040;-75
2022/11/23 08:59:54;;;;;;;17.33;16.42;;;4.60;99.90;;;;;;5065517;28;20111;-78
2022/11/23 09:02:20;;;;;;;20.73;19.77;;;4.60;99.90;;;;;;5050506;28;20072;-77
2022/11/23 09:04:45;;;;;;;14.90;14.02;;;4.70;99.90;;;;;;5047364;28;20032;-80
2022/11/23 09:07:11;;;;;;;15.38;14.55;;;4.70;99.90;;;;;;5063966;28;20033;-79
2022/11/23 09:09:36;;;;;;;17.45;16.48;;;4.90;99.90;;;;;;5051004;28;20028;-77
2022/11/23 09:12:03;;;;;;;15.18;14.38;;;4.90;99.90;;;;;;5069612;28;20043;-77
2022/11/23 09:14:28;;;;;;;13.70;12.85;;;5.00;99.90;;;;;;5069163;28;20046;-78
2022/11/23 09:16:54;;;;;;;19.48;18.35;;;5.00;99.90;;;;;;5063004;28;20037;-76
2022/11/23 09:19:21;;;;;;;17.50;15.93;;;5.10;99.90;;;;;;5048745;28;20086;-79
2022/11/23 09:21:47;;;;;;;10.88;10.05;;;5.20;99.90;;;;;;5065840;28;20025;-82
2022/11/23 09:24:13;;;;;;;8.95;7.22;;;5.10;98.50;;;;;;5050777;28;20114;-78
2022/11/23 09:26:39;;;;;;;8.63;8.02;;;5.10;98.30;;;;;;5068048;28;20052;-82
2022/11/23 09:29:06;;;;;;;11.98;11.20;;;5.20;98.70;;;;;;5042973;28;20025;-76
2022/11/23 09:31:32;;;;;;;8.45;7.93;;;5.20;98.40;;;;;;5048000;28;20060;-79
2022/11/23 09:33:58;;;;;;;33.53;31.58;;;5.30;97.90;;;;;;5053333;28;20064;-80
2022/11/23 09:36:24;;;;;;;7.85;7.22;;;5.30;97.40;;;;;;5053003;28;20036;-81
2022/11/23 09:38:50;;;;;;;6.10;5.80;;;5.40;96.80;;;;;;5049390;28;20032;-80
2022/11/23 09:41:53;;;;;;;6.03;5.50;;;5.40;96.80;;;;;;5046210;28;20032;-78
2022/11/23 09:44:51;;;;;;;6.68;6.00;;;5.50;96.10;;;;;;5069206;28;20035;-79
2022/11/23 09:47:37;;;;;;;6.95;6.47;;;5.50;96.50;;;;;;5048592;28;20541;-79
2022/11/23 09:50:05;;;;;;;6.35;5.90;;;5.60;96.30;;;;;;5071107;28;20333;-79
2022/11/23 09:52:32;;;;;;;5.80;5.50;;;5.60;95.60;;;;;;5071168;28;20363;-79
2022/11/23 09:55:04;;;;;;;6.97;6.47;;;5.60;95.70;;;;;;5070935;28;20144;-80
2022/11/23 09:57:32;;;;;;;9.30;8.82;;;5.60;95.40;;;;;;5066046;28;20024;-80
2022/11/23 10:00:05;;;;;;;7.28;6.68;;;5.70;95.20;;;;;;5052570;28;20513;-76
2022/11/23 10:02:35;;;;;;;9.43;8.98;;;5.70;94.40;;;;;;5030474;28;20702;-79
2022/11/23 10:05:03;;;;;;;9.60;6.22;;;5.70;93.90;;;;;;5066826;28;20021;-81
2022/11/23 10:07:47;;;;;;;8.68;7.88;;;5.70;93.50;;;;;;5070543;28;20025;-76
2022/11/23 10:10:41;;;;;;;8.77;8.10;;;5.80;93.90;;;;;;5069746;28;20095;-79
2022/11/23 10:13:13;;;;;;;7.35;6.35;;;5.80;93.60;;;;;;5059534;28;20060;-78
2022/11/23 10:15:52;;;;;;;7.05;6.55;;;5.80;94.00;;;;;;5049843;28;20017;-81
2022/11/23 10:18:36;;;;;;;7.65;7.15;;;5.80;94.70;;;;;;5069154;28;20082;-78
2022/11/23 10:21:17;;;;;;;6.93;6.53;;;5.90;94.20;;;;;;5070465;28;20229;-79
2022/11/23 10:23:53;;;;;;;7.05;6.65;;;6.00;93.70;;;;;;5068498;28;20430;-77
2022/11/23 10:26:25;;;;;;;7.18;6.80;;;6.10;94.30;;;;;;5058051;28;20391;-80
2022/11/23 10:28:52;;;;;;;9.15;6.72;;;6.10;92.80;;;;;;5068798;28;20021;-82
2022/11/23 10:31:20;;;;;;;6.20;5.90;;;6.20;93.30;;;;;;5036068;28;20071;-79
2022/11/23 10:34:00;;;;;;;6.70;6.20;;;6.30;93.20;;;;;;5066352;28;20550;-79
2022/11/23 10:36:26;;;;;;;6.85;6.25;;;6.20;92.70;;;;;;5070256;28;20036;-81
2022/11/23 10:38:57;;;;;;;6.03;5.72;;;6.30;91.10;;;;;;5050300;28;20442;-78
2022/11/23 10:41:23;;;;;;;6.97;6.47;;;6.40;90.60;;;;;;5064771;28;20486;-77
2022/11/23 10:44:05;;;;;;;7.18;6.65;;;6.50;90.70;;;;;;5048209;28;20039;-79
2022/11/23 10:46:34;;;;;;;7.07;6.47;;;6.40;90.20;;;;;;5068899;28;20036;-79
2022/11/23 10:49:17;;;;;;;5.60;5.20;;;6.50;90.80;;;;;;5068898;28;20161;-80
2022/11/23 10:51:55;;;;;;;18.83;15.50;;;6.50;88.50;;;;;;5051816;28;20052;-79
2022/11/23 10:54:30;;;;;;;5.22;4.82;;;6.60;88.60;;;;;;5066762;28;20087;-79
2022/11/23 10:56:58;;;;;;;5.43;5.07;;;6.60;88.50;;;;;;5067640;28;20028;-80
2022/11/23 10:59:35;;;;;;;5.07;4.65;;;6.60;89.90;;;;;;5061319;28;20028;-79
2022/11/23 11:02:20;;;;;;;5.38;4.88;;;6.70;88.80;;;;;;5068479;28;20526;-80
2022/11/23 11:04:48;;;;;;;6.50;5.90;;;6.60;88.10;;;;;;5066475;28;20108;-81
2022/11/23 11:07:22;;;;;;;5.75;5.38;;;6.70;88.40;;;;;;5064938;28;20033;-78
2022/11/23 11:09:54;;;;;;;4.38;4.18;;;6.70;90.00;;;;;;5061263;28;20053;-77
2022/11/23 11:12:19;;;;;;;5.47;5.18;;;6.80;88.30;;;;;;5041708;28;20036;-76
2022/11/23 11:15:03;;;;;;;5.82;5.30;;;6.90;89.30;;;;;;5048438;28;20521;-80
2022/11/23 11:17:32;;;;;;;6.05;5.68;;;6.90;85.90;;;;;;5063923;28;20509;-80
2022/11/23 11:19:58;;;;;;;5.30;5.00;;;6.90;84.60;;;;;;5064788;28;20047;-82
2022/11/23 11:22:35;;;;;;;4.60;4.25;;;7.00;86.20;;;;;;5048171;28;20040;-79
2022/11/23 11:25:05;;;;;;;4.43;4.20;;;7.00;86.00;;;;;;5058718;28;20025;-76
2022/11/23 11:27:31;;;;;;;4.70;4.25;;;7.00;85.00;;;;;;5061454;28;20040;-78
2022/11/23 11:30:16;;;;;;;5.88;5.57;;;7.10;85.30;;;;;;5067910;28;20746;-79
2022/11/23 11:33:02;;;;;;;4.88;4.55;;;7.10;83.50;;;;;;5062451;28;20025;-81
2022/11/23 11:35:37;;;;;;;5.32;4.93;;;7.00;85.90;;;;;;5067323;28;20081;-78
2022/11/23 11:38:22;;;;;;;8.13;7.50;;;7.10;83.70;;;;;;5067937;28;20024;-77
2022/11/23 11:40:50;;;;;;;6.93;6.53;;;7.10;81.60;;;;;;5049115;28;20036;-79
2022/11/23 11:43:50;;;;;;;6.90;6.50;;;7.10;80.50;;;;;;5068754;28;20490;-78
2022/11/23 11:46:15;;;;;;;7.00;6.53;;;7.10;81.00;;;;;;5051587;28;20106;-79
2022/11/23 11:48:47;;;;;;;8.75;8.15;;;7.10;80.00;;;;;;5068813;28;20419;-81
2022/11/23 11:51:18;;;;;;;7.43;6.55;;;7.10;80.10;;;;;;5046656;28;20106;-81
2022/11/23 11:54:13;;;;;;;7.72;6.90;;;7.10;78.80;;;;;;5066559;28;20532;-80
2022/11/23 11:57:11;;;;;;;6.13;5.72;;;7.20;80.20;;;;;;5067899;28;20025;-79
2022/11/23 11:59:43;;;;;;;7.50;5.03;;;7.20;78.50;;;;;;5050262;28;20078;-81
2022/11/23 12:02:35;;;;;;;7.15;6.70;;;7.30;77.70;;;;;;5047258;28;20034;-78
2022/11/23 12:05:15;;;;;;;8.00;7.50;;;7.20;79.80;;;;;;5064912;28;20025;-80
2022/11/23 12:08:19;;;;;;;7.75;7.28;;;7.20;80.20;;;;;;5063504;28;20135;-78
2022/11/23 12:10:50;;;;;;;5.43;4.90;;;7.20;79.30;;;;;;4979846;28;20551;-76
2022/11/23 12:13:19;;;;;;;5.72;5.32;;;7.30;75.20;;;;;;4983530;28;20046;-76
2022/11/23 12:15:53;;;;;;;6.15;5.65;;;7.40;71.70;;;;;;4985160;28;20042;-82
2022/11/23 12:18:45;;;;;;;6.43;6.03;;;7.50;75.20;;;;;;4986755;28;20117;-87
2022/11/23 12:21:25;;;;;;;5.85;5.57;;;7.30;73.10;;;;;;4969960;28;20613;-80
2022/11/23 12:24:04;;;;;;;6.13;5.82;;;7.40;72.50;;;;;;4988515;28;20031;-80
2022/11/23 12:27:06;;;;;;;4.47;4.28;;;7.30;71.90;;;;;;4985128;28;20060;-81
2022/11/23 12:29:41;;;;;;;4.55;4.25;;;7.40;69.20;;;;;;5039655;28;20060;-78
2022/11/23 12:32:37;;;;;;;4.45;4.15;;;7.50;70.40;;;;;;5063474;28;20067;-77
2022/11/23 12:35:10;;;;;;;4.35;3.80;;;7.60;69.50;;;;;;5047245;28;20040;-75
2022/11/23 12:37:50;;;;;;;6.68;6.28;;;7.50;68.40;;;;;;5067748;28;20486;-75
2022/11/23 12:40:28;;;;;;;6.05;5.75;;;7.50;71.00;;;;;;5066416;28;20028;-78
2022/11/23 12:43:12;;;;;;;19.58;18.00;;;7.50;72.50;;;;;;5042551;28;20842;-79
2022/11/23 12:46:22;;;;;;;5.30;4.55;;;7.60;67.30;;;;;;5064201;28;20382;-77
2022/11/23 12:49:27;;;;;;;4.05;3.80;;;7.60;69.10;;;;;;5064780;28;20679;-79
2022/11/23 12:51:56;;;;;;;3.88;3.67;;;7.60;68.50;;;;;;5055767;28;20073;-76